Página principal
METAR-TAF:

METAR-TAF

Aeroportos :

Badajoz, Espanha

latitude: 38-53N, longitude: 006-49W, altura: 185 m

Observação actual do tempo

O boletim foi feito há 6 horas e 19 minutos, às 20:00 UTC
Vento 2 kt com direcção variável
Temperatura 12°C
Humidade 94%
Pressão 1019 hPa
Visibilidade 10 km ou mais
Nuvens dispersasa uma altura de 2500 ft

METAR: LEBZ 122000Z VRB02KT 9999 SCT025 12/11 Q1019

Hora: 03:19 (02:19 UTC)

Previsão

O boletim foi feito há 3 horas e 19 minutos, às 23:00 UTC
Previsão válida de 13 às 00 UTC a 13 às 24 UTC
Vento 4 kt de norte
Visibilidade 10 km ou mais
Nuvens dispersasa uma altura de 1500 ft
Temporariamente
de 13 às 02 UTC a 13 às 09 UTC
Visibilidade: 3000 m
Nuvens fragmentadasa uma altura de 800 ft
neblina
Probabilidade 40% :
Temporariamente
de 13 às 04 UTC a 13 às 08 UTC
Visibilidade: 0500 m
a uma altura de 100 ft
nevoeiro

TAF: LEBZ 122300Z 1300/1324 01004KT 9999 SCT015 TX20/1315Z TN08/1306Z TEMPO 1302/1309 3000 BR BKN008 PROB40 TEMPO 1304/1308 0500 FG VV001

Observações e previsões do tempo de mais de 4000 aeroportos (mensagens METAR e TAF).

As estações disponíveis são os pontos amarelos e vermelhos sobre o mapa.

Mova o rato sobre o mapa para ver o nome da estação.

Depois clique no ponto para visualizar as observações e previsões meteorológicas.

Para alterar o mapa : clique nos botões verdes com uma cruz preta para aumentar o zoom; no botão verde com uma pitada de zoom; ou nas setas verdes para mapas adjacentes.


METAR-TAF: